sensor_id;sensor_type;location;lat;lon;timestamp;P1;durP1;ratioP1;P2;durP2;ratioP2
48100;SDS011;33878;47.442;18.916;2022-10-16T13:33:17;8.30;;;4.12;;
48100;SDS011;33878;47.442;18.916;2022-10-16T13:36:25;6.47;;;4.15;;
48100;SDS011;33878;47.442;18.916;2022-10-16T13:42:24;7.12;;;4.15;;
48100;SDS011;33878;47.442;18.916;2022-10-16T14:05:21;5.78;;;4.10;;
48100;SDS011;33878;47.442;18.916;2022-10-16T14:08:27;7.85;;;4.45;;
48100;SDS011;33878;47.442;18.916;2022-10-16T14:11:20;8.20;;;4.45;;
48100;SDS011;33878;47.442;18.916;2022-10-16T14:43:22;11.88;;;5.50;;
48100;SDS011;33878;47.442;18.916;2022-10-16T14:46:36;8.75;;;5.05;;
48100;SDS011;33878;47.442;18.916;2022-10-16T14:49:42;9.57;;;5.32;;
48100;SDS011;33878;47.442;18.916;2022-10-16T14:52:30;9.27;;;5.30;;
48100;SDS011;33878;47.442;18.916;2022-10-16T14:55:17;8.65;;;5.30;;
48100;SDS011;33878;47.442;18.916;2022-10-16T14:58:04;9.35;;;5.85;;
48100;SDS011;33878;47.442;18.916;2022-10-16T15:00:51;8.23;;;5.78;;
48100;SDS011;33878;47.442;18.916;2022-10-16T15:03:44;8.88;;;5.15;;
48100;SDS011;33878;47.442;18.916;2022-10-16T15:06:34;8.93;;;5.30;;
48100;SDS011;33878;47.442;18.916;2022-10-16T15:09:24;11.38;;;7.72;;
48100;SDS011;33878;47.442;18.916;2022-10-16T15:12:13;7.93;;;5.00;;
48100;SDS011;33878;47.442;18.916;2022-10-16T15:18:14;10.07;;;5.62;;
48100;SDS011;33878;47.442;18.916;2022-10-16T15:21:28;13.00;;;9.10;;
48100;SDS011;33878;47.442;18.916;2022-10-16T15:24:20;10.52;;;6.32;;
48100;SDS011;33878;47.442;18.916;2022-10-16T15:27:07;10.02;;;7.03;;
48100;SDS011;33878;47.442;18.916;2022-10-16T15:29:55;10.70;;;7.28;;
48100;SDS011;33878;47.442;18.916;2022-10-16T15:32:43;11.45;;;7.78;;
48100;SDS011;33878;47.442;18.916;2022-10-16T15:38:41;13.62;;;8.55;;
48100;SDS011;33878;47.442;18.916;2022-10-16T15:41:33;12.68;;;8.77;;
48100;SDS011;33878;47.442;18.916;2022-10-16T15:44:24;13.55;;;8.00;;
48100;SDS011;33878;47.442;18.916;2022-10-16T15:47:17;11.48;;;7.65;;
48100;SDS011;33878;47.442;18.916;2022-10-16T15:50:12;10.80;;;7.15;;
48100;SDS011;33878;47.442;18.916;2022-10-16T15:53:10;10.87;;;7.63;;
48100;SDS011;33878;47.442;18.916;2022-10-16T15:59:15;14.93;;;8.85;;
48100;SDS011;33878;47.442;18.916;2022-10-16T16:04:59;17.97;;;11.00;;
48100;SDS011;33878;47.442;18.916;2022-10-16T16:08:00;15.82;;;10.65;;
48100;SDS011;33878;47.442;18.916;2022-10-16T16:11:13;13.52;;;8.48;;
48100;SDS011;33878;47.442;18.916;2022-10-16T16:14:13;14.23;;;8.90;;
48100;SDS011;33878;47.442;18.916;2022-10-16T16:17:10;13.50;;;8.73;;
48100;SDS011;33878;47.442;18.916;2022-10-16T16:19:57;14.35;;;8.50;;
48100;SDS011;33878;47.442;18.916;2022-10-16T16:22:55;15.50;;;10.25;;
48100;SDS011;33878;47.442;18.916;2022-10-16T16:29:00;18.05;;;10.20;;
48100;SDS011;33878;47.442;18.916;2022-10-16T16:31:50;17.05;;;11.60;;
48100;SDS011;33878;47.442;18.916;2022-10-16T16:34:47;19.60;;;11.25;;
48100;SDS011;33878;47.442;18.916;2022-10-16T16:37:42;17.03;;;10.83;;
48100;SDS011;33878;47.442;18.916;2022-10-16T16:40:38;17.20;;;11.40;;
48100;SDS011;33878;47.442;18.916;2022-10-16T16:46:38;28.02;;;19.98;;
48100;SDS011;33878;47.442;18.916;2022-10-16T16:52:52;37.40;;;28.20;;
48100;SDS011;33878;47.442;18.916;2022-10-16T16:55:44;40.35;;;31.10;;
48100;SDS011;33878;47.442;18.916;2022-10-16T16:58:33;46.15;;;35.75;;
48100;SDS011;33878;47.442;18.916;2022-10-16T17:01:29;43.33;;;31.87;;
48100;SDS011;33878;47.442;18.916;2022-10-16T17:07:20;40.43;;;28.90;;
48100;SDS011;33878;47.442;18.916;2022-10-16T17:13:15;32.47;;;22.20;;
48100;SDS011;33878;47.442;18.916;2022-10-16T17:19:13;29.12;;;20.45;;
48100;SDS011;33878;47.442;18.916;2022-10-16T17:22:19;32.17;;;22.47;;
48100;SDS011;33878;47.442;18.916;2022-10-16T17:25:13;31.15;;;22.60;;
48100;SDS011;33878;47.442;18.916;2022-10-16T17:28:10;29.83;;;22.40;;
48100;SDS011;33878;47.442;18.916;2022-10-16T17:37:05;31.77;;;23.38;;
48100;SDS011;33878;47.442;18.916;2022-10-16T17:43:10;29.67;;;21.83;;
48100;SDS011;33878;47.442;18.916;2022-10-16T17:46:00;33.33;;;23.55;;
48100;SDS011;33878;47.442;18.916;2022-10-16T17:51:53;31.90;;;24.15;;
48100;SDS011;33878;47.442;18.916;2022-10-16T17:57:49;41.58;;;33.55;;
48100;SDS011;33878;47.442;18.916;2022-10-16T18:00:41;45.38;;;34.72;;
48100;SDS011;33878;47.442;18.916;2022-10-16T18:03:29;47.00;;;36.90;;
48100;SDS011;33878;47.442;18.916;2022-10-16T18:06:24;46.30;;;33.37;;
48100;SDS011;33878;47.442;18.916;2022-10-16T18:12:50;49.60;;;35.93;;
48100;SDS011;33878;47.442;18.916;2022-10-16T18:15:58;63.80;;;42.95;;
48100;SDS011;33878;47.442;18.916;2022-10-16T18:18:57;101.57;;;63.50;;
48100;SDS011;33878;47.442;18.916;2022-10-16T18:21:48;105.60;;;64.67;;
48100;SDS011;33878;47.442;18.916;2022-10-16T18:24:38;92.65;;;60.33;;
48100;SDS011;33878;47.442;18.916;2022-10-16T18:27:34;100.27;;;63.00;;
48100;SDS011;33878;47.442;18.916;2022-10-16T18:30:39;79.18;;;54.80;;
48100;SDS011;33878;47.442;18.916;2022-10-16T18:33:33;83.60;;;55.90;;
48100;SDS011;33878;47.442;18.916;2022-10-16T18:36:27;75.43;;;50.40;;
48100;SDS011;33878;47.442;18.916;2022-10-16T18:39:16;68.00;;;48.15;;
48100;SDS011;33878;47.442;18.916;2022-10-16T18:45:14;64.57;;;44.33;;
48100;SDS011;33878;47.442;18.916;2022-10-16T18:48:01;63.00;;;44.90;;
48100;SDS011;33878;47.442;18.916;2022-10-16T18:50:51;62.17;;;43.35;;
48100;SDS011;33878;47.442;18.916;2022-10-16T18:53:44;54.43;;;40.30;;
48100;SDS011;33878;47.442;18.916;2022-10-16T18:59:33;45.15;;;34.72;;
48100;SDS011;33878;47.442;18.916;2022-10-16T19:02:20;51.58;;;38.75;;
48100;SDS011;33878;47.442;18.916;2022-10-16T19:08:13;60.25;;;44.30;;
48100;SDS011;33878;47.442;18.916;2022-10-16T19:11:08;59.07;;;44.37;;
48100;SDS011;33878;47.442;18.916;2022-10-16T19:14:04;64.28;;;47.40;;
48100;SDS011;33878;47.442;18.916;2022-10-16T19:16:56;63.67;;;45.70;;
48100;SDS011;33878;47.442;18.916;2022-10-16T19:19:55;67.73;;;48.37;;
48100;SDS011;33878;47.442;18.916;2022-10-16T19:22:52;65.50;;;45.78;;
48100;SDS011;33878;47.442;18.916;2022-10-16T19:25:47;65.25;;;46.95;;
48100;SDS011;33878;47.442;18.916;2022-10-16T19:28:43;67.55;;;48.15;;
48100;SDS011;33878;47.442;18.916;2022-10-16T19:31:43;65.25;;;45.70;;
48100;SDS011;33878;47.442;18.916;2022-10-16T19:34:49;62.42;;;44.95;;
48100;SDS011;33878;47.442;18.916;2022-10-16T19:37:43;60.08;;;43.40;;
48100;SDS011;33878;47.442;18.916;2022-10-16T19:46:43;46.78;;;34.28;;
48100;SDS011;33878;47.442;18.916;2022-10-16T19:49:31;43.45;;;33.22;;
48100;SDS011;33878;47.442;18.916;2022-10-16T19:52:24;50.58;;;35.70;;
48100;SDS011;33878;47.442;18.916;2022-10-16T19:55:13;42.78;;;30.77;;
48100;SDS011;33878;47.442;18.916;2022-10-16T19:58:04;41.78;;;28.85;;
48100;SDS011;33878;47.442;18.916;2022-10-16T20:01:09;39.78;;;28.62;;
48100;SDS011;33878;47.442;18.916;2022-10-16T20:04:06;37.65;;;25.33;;
48100;SDS011;33878;47.442;18.916;2022-10-16T20:06:59;28.35;;;20.55;;
48100;SDS011;33878;47.442;18.916;2022-10-16T20:09:54;28.30;;;20.13;;
48100;SDS011;33878;47.442;18.916;2022-10-16T20:12:44;29.15;;;19.95;;
48100;SDS011;33878;47.442;18.916;2022-10-16T20:15:45;30.10;;;20.47;;
48100;SDS011;33878;47.442;18.916;2022-10-16T20:18:39;27.70;;;19.35;;
48100;SDS011;33878;47.442;18.916;2022-10-16T20:21:30;23.77;;;17.60;;
48100;SDS011;33878;47.442;18.916;2022-10-16T20:24:22;25.12;;;17.90;;
48100;SDS011;33878;47.442;18.916;2022-10-16T20:30:12;22.95;;;15.50;;
48100;SDS011;33878;47.442;18.916;2022-10-16T20:33:01;24.55;;;16.90;;
48100;SDS011;33878;47.442;18.916;2022-10-16T20:36:10;24.73;;;17.02;;
48100;SDS011;33878;47.442;18.916;2022-10-16T20:39:02;24.07;;;16.87;;
48100;SDS011;33878;47.442;18.916;2022-10-16T20:42:01;28.83;;;20.27;;
48100;SDS011;33878;47.442;18.916;2022-10-16T20:44:49;39.22;;;27.15;;
48100;SDS011;33878;47.442;18.916;2022-10-16T20:47:39;39.67;;;28.15;;
48100;SDS011;33878;47.442;18.916;2022-10-16T20:50:28;43.05;;;31.35;;
48100;SDS011;33878;47.442;18.916;2022-10-16T20:53:16;45.53;;;32.40;;
48100;SDS011;33878;47.442;18.916;2022-10-16T20:56:05;42.27;;;31.60;;
48100;SDS011;33878;47.442;18.916;2022-10-16T20:58:57;43.35;;;30.23;;
48100;SDS011;33878;47.442;18.916;2022-10-16T21:01:52;38.30;;;27.70;;
48100;SDS011;33878;47.442;18.916;2022-10-16T21:04:41;35.37;;;25.63;;
48100;SDS011;33878;47.442;18.916;2022-10-16T21:07:32;34.25;;;24.20;;
48100;SDS011;33878;47.442;18.916;2022-10-16T21:10:34;34.38;;;23.55;;
48100;SDS011;33878;47.442;18.916;2022-10-16T21:13:22;33.85;;;22.95;;
48100;SDS011;33878;47.442;18.916;2022-10-16T21:16:16;27.25;;;19.52;;
48100;SDS011;33878;47.442;18.916;2022-10-16T21:19:04;25.87;;;19.03;;
48100;SDS011;33878;47.442;18.916;2022-10-16T21:21:50;25.57;;;18.97;;
48100;SDS011;33878;47.442;18.916;2022-10-16T21:24:38;31.23;;;22.48;;
48100;SDS011;33878;47.442;18.916;2022-10-16T21:27:25;31.80;;;22.30;;
48100;SDS011;33878;47.442;18.916;2022-10-16T21:30:14;31.50;;;21.00;;
48100;SDS011;33878;47.442;18.916;2022-10-16T21:33:02;29.58;;;19.75;;
48100;SDS011;33878;47.442;18.916;2022-10-16T21:35:51;27.70;;;19.75;;
48100;SDS011;33878;47.442;18.916;2022-10-16T21:38:37;30.85;;;23.60;;
48100;SDS011;33878;47.442;18.916;2022-10-16T21:41:24;32.53;;;24.30;;
48100;SDS011;33878;47.442;18.916;2022-10-16T21:44:12;33.50;;;24.80;;
48100;SDS011;33878;47.442;18.916;2022-10-16T21:46:59;31.12;;;23.35;;
48100;SDS011;33878;47.442;18.916;2022-10-16T21:49:47;33.25;;;23.65;;
48100;SDS011;33878;47.442;18.916;2022-10-16T21:52:33;30.15;;;22.17;;
48100;SDS011;33878;47.442;18.916;2022-10-16T21:55:22;28.05;;;19.98;;
48100;SDS011;33878;47.442;18.916;2022-10-16T21:58:08;27.23;;;19.87;;
48100;SDS011;33878;47.442;18.916;2022-10-16T22:00:55;27.77;;;19.55;;
48100;SDS011;33878;47.442;18.916;2022-10-16T22:03:42;27.15;;;19.77;;
48100;SDS011;33878;47.442;18.916;2022-10-16T22:06:30;31.08;;;21.80;;
48100;SDS011;33878;47.442;18.916;2022-10-16T22:09:16;31.45;;;23.75;;
48100;SDS011;33878;47.442;18.916;2022-10-16T22:12:03;30.42;;;24.45;;
48100;SDS011;33878;47.442;18.916;2022-10-16T22:14:49;31.45;;;22.37;;
48100;SDS011;33878;47.442;18.916;2022-10-16T22:17:35;29.77;;;21.95;;
48100;SDS011;33878;47.442;18.916;2022-10-16T22:20:23;30.37;;;22.65;;
48100;SDS011;33878;47.442;18.916;2022-10-16T22:23:11;28.10;;;20.97;;
48100;SDS011;33878;47.442;18.916;2022-10-16T22:26:00;26.62;;;19.87;;
48100;SDS011;33878;47.442;18.916;2022-10-16T22:28:48;27.65;;;19.35;;
48100;SDS011;33878;47.442;18.916;2022-10-16T22:31:35;27.58;;;20.50;;
48100;SDS011;33878;47.442;18.916;2022-10-16T22:34:22;28.67;;;21.33;;
48100;SDS011;33878;47.442;18.916;2022-10-16T22:37:08;29.65;;;20.35;;
48100;SDS011;33878;47.442;18.916;2022-10-16T22:39:55;28.25;;;21.25;;
48100;SDS011;33878;47.442;18.916;2022-10-16T22:42:46;28.20;;;21.42;;
48100;SDS011;33878;47.442;18.916;2022-10-16T22:45:37;29.33;;;21.85;;
48100;SDS011;33878;47.442;18.916;2022-10-16T22:48:24;30.50;;;21.87;;
48100;SDS011;33878;47.442;18.916;2022-10-16T22:51:11;31.48;;;22.13;;
48100;SDS011;33878;47.442;18.916;2022-10-16T22:54:02;31.65;;;23.62;;
48100;SDS011;33878;47.442;18.916;2022-10-16T22:56:48;29.67;;;20.75;;
48100;SDS011;33878;47.442;18.916;2022-10-16T22:59:35;26.40;;;19.77;;
48100;SDS011;33878;47.442;18.916;2022-10-16T23:02:22;23.92;;;17.65;;
48100;SDS011;33878;47.442;18.916;2022-10-16T23:05:10;22.05;;;15.65;;
48100;SDS011;33878;47.442;18.916;2022-10-16T23:07:56;20.02;;;14.57;;
48100;SDS011;33878;47.442;18.916;2022-10-16T23:10:44;17.20;;;12.93;;
48100;SDS011;33878;47.442;18.916;2022-10-16T23:13:34;24.73;;;17.05;;
48100;SDS011;33878;47.442;18.916;2022-10-16T23:16:21;21.42;;;16.85;;
48100;SDS011;33878;47.442;18.916;2022-10-16T23:19:08;24.45;;;17.37;;
48100;SDS011;33878;47.442;18.916;2022-10-16T23:22:01;24.87;;;18.08;;
48100;SDS011;33878;47.442;18.916;2022-10-16T23:24:48;22.90;;;17.77;;
48100;SDS011;33878;47.442;18.916;2022-10-16T23:27:34;24.50;;;17.95;;
48100;SDS011;33878;47.442;18.916;2022-10-16T23:30:22;25.40;;;19.05;;
48100;SDS011;33878;47.442;18.916;2022-10-16T23:33:09;23.20;;;18.85;;
48100;SDS011;33878;47.442;18.916;2022-10-16T23:35:55;24.27;;;17.87;;
48100;SDS011;33878;47.442;18.916;2022-10-16T23:38:41;28.20;;;18.77;;
48100;SDS011;33878;47.442;18.916;2022-10-16T23:41:29;25.50;;;18.35;;
48100;SDS011;33878;47.442;18.916;2022-10-16T23:44:15;23.30;;;17.70;;
48100;SDS011;33878;47.442;18.916;2022-10-16T23:47:02;20.97;;;15.77;;
48100;SDS011;33878;47.442;18.916;2022-10-16T23:49:49;20.60;;;15.43;;
48100;SDS011;33878;47.442;18.916;2022-10-16T23:52:35;19.80;;;14.55;;
48100;SDS011;33878;47.442;18.916;2022-10-16T23:55:22;20.23;;;15.80;;
48100;SDS011;33878;47.442;18.916;2022-10-16T23:58:09;19.83;;;14.70;;
